Terminal Aerodrome Forecast
Issued by NWS Caribou, ME

Home | Current Version | Previous Version | Text Only | Print | Product List | Glossary On
Versions: 1 2 3 4 5 6 7 8 9 10 11 12 13 14 15 16 17 18 19 20 21
000
FTUS41 KCAR 012336
TAFCAR
TAF
KCAR 012336Z 0200/0224 24004KT P6SM VCSH SCT040 BKN080
     FM020200 24004KT P6SM SCT060
     FM020800 24004KT 3SM BR SCT060
     FM021100 24006KT P6SM SCT060
     FM021800 22010KT P6SM VCSH BKN050=

USA.gov is the U.S. government's official web portal to all federal, state and local government web resources and services.